Time;durP1;ratioP1;P1;durP2;ratioP2;P2;SDS_P1;SDS_P2;PMS_P1;PMS_P2;Temp;Humidity;BMP_temperature;BMP_pressure;BME280_temperature;BME280_humidity;BME280_pressure;Samples;Min_cycle;Max_cycle;Signal;HPM_P1;HPM_P2
2021/12/13 00:02:33;;;;;;;6.13;4.87;;;10.80;60.10;;;;;;5078187;28;20846;-88
2021/12/13 00:05:06;;;;;;;5.30;4.50;;;10.80;60.50;;;;;;5050178;28;20440;-87
2021/12/13 00:07:37;;;;;;;6.97;4.50;;;10.70;60.60;;;;;;5070808;28;20451;-87
2021/12/13 00:10:11;;;;;;;10.20;5.20;;;10.80;60.40;;;;;;5072153;28;20879;-89
2021/12/13 00:12:42;;;;;;;9.83;5.87;;;10.90;60.40;;;;;;5055316;28;20457;-87
2021/12/13 00:15:14;;;;;;;8.90;5.33;;;11.00;60.30;;;;;;5038040;28;20452;-87
2021/12/13 00:17:50;;;;;;;6.13;5.23;;;11.00;60.00;;;;;;5057438;28;20455;-87
2021/12/13 00:20:28;;;;;;;6.90;5.00;;;11.10;59.90;;;;;;5053802;28;20474;-88
2021/12/13 00:22:58;;;;;;;6.63;4.83;;;11.10;59.60;;;;;;5074762;28;20458;-87
2021/12/13 00:25:28;;;;;;;6.97;5.40;;;10.90;60.10;;;;;;5075298;28;20454;-87
2021/12/13 00:27:59;;;;;;;7.33;5.67;;;11.00;60.00;;;;;;5023591;28;20466;-87
2021/12/13 00:30:34;;;;;;;7.33;5.10;;;10.90;60.40;;;;;;5040409;28;20449;-87
2021/12/13 00:33:15;;;;;;;6.67;5.30;;;11.00;60.20;;;;;;5055181;28;20463;-87
2021/12/13 00:35:47;;;;;;;8.80;5.67;;;11.00;59.90;;;;;;5057427;28;20478;-87
2021/12/13 00:38:15;;;;;;;7.73;5.33;;;11.10;60.10;;;;;;5073747;28;20940;-88
2021/12/13 00:40:45;;;;;;;7.30;5.10;;;11.10;60.60;;;;;;5049163;28;20830;-87
2021/12/13 00:43:18;;;;;;;7.60;5.10;;;11.10;59.80;;;;;;5071949;28;20947;-88
2021/12/13 00:45:52;;;;;;;7.17;6.03;;;11.20;59.80;;;;;;5043403;28;21013;-87
2021/12/13 00:48:24;;;;;;;8.27;5.47;;;11.10;59.60;;;;;;5073040;28;21238;-88
2021/12/13 00:50:59;;;;;;;7.93;5.33;;;11.00;59.90;;;;;;5073379;28;20453;-89
2021/12/13 00:53:27;;;;;;;8.00;5.70;;;11.10;59.90;;;;;;5055270;28;20466;-89
2021/12/13 00:55:54;;;;;;;6.13;5.00;;;11.10;59.90;;;;;;5049229;28;20874;-88
2021/12/13 00:58:24;;;;;;;7.10;4.77;;;11.10;59.70;;;;;;5041755;28;20533;-87
2021/12/13 01:00:53;;;;;;;8.63;5.70;;;11.20;59.70;;;;;;5057764;28;20992;-89
2021/12/13 01:03:26;;;;;;;7.47;4.60;;;11.10;59.80;;;;;;5060440;28;20453;-87
2021/12/13 01:06:40;;;;;;;8.77;4.47;;;11.20;59.80;;;;;;5055516;28;20452;-88
2021/12/13 01:09:42;;;;;;;7.63;5.27;;;11.10;60.00;;;;;;5022590;28;20480;-87
2021/12/13 01:12:12;;;;;;;6.60;4.80;;;11.10;59.90;;;;;;5062451;28;20466;-87
2021/12/13 01:14:56;;;;;;;8.60;6.10;;;11.10;59.70;;;;;;5056151;28;20463;-87
2021/12/13 01:17:38;;;;;;;11.93;6.47;;;11.00;60.10;;;;;;5040737;28;20550;-87
2021/12/13 01:20:16;;;;;;;13.70;5.90;;;11.00;60.30;;;;;;5055093;28;20471;-89
2021/12/13 01:22:50;;;;;;;9.53;5.60;;;11.10;60.30;;;;;;5043886;28;20467;-88
2021/12/13 01:25:38;;;;;;;7.70;5.27;;;11.10;60.10;;;;;;5071541;28;20463;-88
2021/12/13 01:28:11;;;;;;;10.70;6.10;;;11.20;60.00;;;;;;5042823;28;20456;-85
2021/12/13 01:30:42;;;;;;;12.93;5.70;;;11.20;59.90;;;;;;5046101;28;20449;-87
2021/12/13 01:33:13;;;;;;;7.80;5.77;;;11.20;59.90;;;;;;5056382;28;20447;-88
2021/12/13 01:35:45;;;;;;;9.60;6.20;;;11.10;60.00;;;;;;5054026;28;21159;-87
2021/12/13 01:38:15;;;;;;;9.53;5.80;;;11.10;60.10;;;;;;5045338;28;20479;-87
2021/12/13 01:40:46;;;;;;;11.73;6.50;;;11.10;60.20;;;;;;5071597;28;20451;-88
2021/12/13 01:43:16;;;;;;;8.33;6.40;;;11.20;60.20;;;;;;5056784;28;20451;-87
2021/12/13 01:45:47;;;;;;;9.10;6.20;;;11.20;60.10;;;;;;5054606;28;20468;-86
2021/12/13 01:48:18;;;;;;;8.80;6.07;;;11.20;60.10;;;;;;5072842;28;20521;-87
2021/12/13 01:50:52;;;;;;;11.83;6.70;;;11.20;59.90;;;;;;5058010;28;20468;-88
2021/12/13 01:53:30;;;;;;;9.40;6.60;;;11.00;60.10;;;;;;5073975;28;20463;-87
2021/12/13 01:55:59;;;;;;;8.23;6.00;;;11.00;60.60;;;;;;5056033;28;20971;-87
2021/12/13 01:58:39;;;;;;;11.40;5.83;;;11.00;60.50;;;;;;5052267;28;20479;-87
2021/12/13 02:01:10;;;;;;;9.83;5.80;;;10.90;60.80;;;;;;5055309;28;20480;-85
2021/12/13 02:03:59;;;;;;;7.87;5.57;;;11.00;60.80;;;;;;5038856;28;20453;-88
2021/12/13 02:06:33;;;;;;;12.23;6.30;;;10.70;61.50;;;;;;5053817;28;20488;-87
2021/12/13 02:09:04;;;;;;;12.10;6.30;;;10.80;61.50;;;;;;5053444;28;20563;-87
2021/12/13 02:11:33;;;;;;;11.77;6.50;;;10.90;61.40;;;;;;5037652;28;20467;-87
2021/12/13 02:14:08;;;;;;;9.73;6.27;;;10.90;61.40;;;;;;5054182;28;20445;-88
2021/12/13 02:16:59;;;;;;;12.00;5.77;;;11.00;61.20;;;;;;5048527;28;20456;-89
2021/12/13 02:19:38;;;;;;;10.73;6.20;;;11.00;61.10;;;;;;5059179;28;20505;-87
2021/12/13 02:22:18;;;;;;;8.13;6.07;;;11.00;60.80;;;;;;5061045;28;20483;-87
2021/12/13 02:24:47;;;;;;;7.57;5.60;;;11.00;60.80;;;;;;5043337;28;20461;-88
2021/12/13 02:27:15;;;;;;;8.30;5.97;;;11.00;61.10;;;;;;5061098;28;20955;-89
2021/12/13 02:29:43;;;;;;;7.33;5.67;;;10.90;60.70;;;;;;5053500;28;20991;-88
2021/12/13 02:32:11;;;;;;;9.93;5.67;;;10.90;61.20;;;;;;5070853;28;20448;-89
2021/12/13 02:34:41;;;;;;;6.90;5.20;;;10.90;61.00;;;;;;5070851;28;20886;-87
2021/12/13 02:37:11;;;;;;;8.07;5.23;;;10.90;61.20;;;;;;5073334;28;20479;-87
2021/12/13 02:39:44;;;;;;;8.47;4.23;;;10.80;61.30;;;;;;5076261;28;20480;-88
2021/12/13 02:42:13;;;;;;;7.43;5.07;;;10.80;61.70;;;;;;5057763;28;20460;-87
2021/12/13 02:44:45;;;;;;;8.90;5.10;;;10.70;62.00;;;;;;5075559;28;20459;-88
2021/12/13 02:47:15;;;;;;;10.80;6.53;;;10.80;62.00;;;;;;5076292;28;20978;-88
2021/12/13 02:49:44;;;;;;;9.83;6.50;;;10.90;61.80;;;;;;5050092;28;20665;-87
2021/12/13 02:52:15;;;;;;;10.00;5.87;;;11.00;61.60;;;;;;5046906;28;20479;-87
2021/12/13 02:54:47;;;;;;;9.03;5.37;;;10.90;61.60;;;;;;5050274;28;20463;-87
2021/12/13 02:57:17;;;;;;;8.67;6.60;;;11.00;61.40;;;;;;5074619;28;20480;-87
2021/12/13 02:59:49;;;;;;;8.07;5.63;;;11.00;61.30;;;;;;5077174;28;20464;-87
2021/12/13 03:02:21;;;;;;;6.57;5.40;;;11.10;61.20;;;;;;5059086;28;20449;-87
2021/12/13 03:04:49;;;;;;;9.97;5.60;;;11.20;61.10;;;;;;5061716;28;20955;-87
2021/12/13 03:07:18;;;;;;;6.10;4.80;;;11.20;60.90;;;;;;5057281;28;20877;-87
2021/12/13 03:09:49;;;;;;;7.10;5.53;;;11.30;60.60;;;;;;5059030;28;20482;-87
2021/12/13 03:12:21;;;;;;;7.90;5.43;;;11.30;60.40;;;;;;5032656;28;21040;-87
2021/12/13 03:14:50;;;;;;;8.73;5.93;;;11.00;60.90;;;;;;5049999;28;20456;-87
2021/12/13 03:17:22;;;;;;;7.40;5.53;;;11.00;61.20;;;;;;5055945;28;20471;-87
2021/12/13 03:20:02;;;;;;;9.50;5.67;;;10.80;61.70;;;;;;5065111;28;20978;-88
2021/12/13 03:23:11;;;;;;;10.43;5.97;;;11.00;61.60;;;;;;5077335;28;20452;-87
2021/12/13 03:25:54;;;;;;;8.30;6.07;;;11.10;61.40;;;;;;5076240;28;20459;-88
2021/12/13 03:28:44;;;;;;;10.17;5.33;;;11.00;61.20;;;;;;5062043;28;20523;-88
2021/12/13 03:31:13;;;;;;;10.53;7.00;;;10.90;61.60;;;;;;5043426;28;20463;-88
2021/12/13 03:33:49;;;;;;;9.30;5.53;;;10.80;62.80;;;;;;5054568;28;20977;-87
2021/12/13 03:36:20;;;;;;;10.50;5.47;;;10.80;62.40;;;;;;5071589;28;20471;-87
2021/12/13 03:38:49;;;;;;;7.93;5.90;;;10.90;62.40;;;;;;5041438;28;20487;-88
2021/12/13 03:41:20;;;;;;;10.63;6.50;;;10.90;63.40;;;;;;5048959;28;20447;-87
2021/12/13 03:43:50;;;;;;;8.47;5.87;;;11.00;62.20;;;;;;5060042;28;20459;-88
2021/12/13 03:46:22;;;;;;;11.03;5.57;;;11.10;61.90;;;;;;5078244;28;20470;-89
2021/12/13 03:48:52;;;;;;;10.07;6.03;;;11.10;61.50;;;;;;5063511;28;20563;-88
2021/12/13 03:51:26;;;;;;;8.77;6.20;;;11.20;61.40;;;;;;5075049;28;20459;-87
2021/12/13 03:53:55;;;;;;;11.27;7.23;;;11.20;61.30;;;;;;5060690;28;20791;-88
2021/12/13 03:56:28;;;;;;;13.20;5.83;;;11.20;61.00;;;;;;5047024;28;20983;-88
2021/12/13 03:58:59;;;;;;;9.83;6.30;;;11.30;60.90;;;;;;5074144;28;20468;-87
2021/12/13 04:01:29;;;;;;;9.77;6.90;;;11.20;61.00;;;;;;5048642;28;20456;-87
2021/12/13 04:04:01;;;;;;;10.90;6.20;;;11.20;61.20;;;;;;5075653;28;20451;-87
2021/12/13 04:06:28;;;;;;;8.57;6.00;;;11.10;61.30;;;;;;5072413;28;22866;-88
2021/12/13 04:08:58;;;;;;;9.40;6.60;;;11.00;61.90;;;;;;5063693;28;20477;-88
2021/12/13 04:11:29;;;;;;;13.83;6.63;;;11.00;62.10;;;;;;5055847;28;20940;-86
2021/12/13 04:14:07;;;;;;;10.90;6.30;;;10.90;62.20;;;;;;5054313;28;20456;-89
2021/12/13 04:16:49;;;;;;;9.70;6.90;;;10.60;63.50;;;;;;5063400;28;20452;-87
2021/12/13 04:19:21;;;;;;;14.10;7.60;;;10.80;63.30;;;;;;5048120;28;20475;-88
2021/12/13 04:21:52;;;;;;;12.00;7.17;;;10.80;62.60;;;;;;5047013;28;20464;-88
2021/12/13 04:24:27;;;;;;;12.50;7.57;;;10.30;64.40;;;;;;5054641;28;20465;-88
2021/12/13 04:26:58;;;;;;;9.50;7.00;;;10.40;64.50;;;;;;5075826;28;20444;-87
2021/12/13 04:29:29;;;;;;;10.17;6.40;;;10.20;65.50;;;;;;5075707;28;20483;-89
2021/12/13 04:31:57;;;;;;;11.10;7.77;;;10.40;64.50;;;;;;5058042;28;20455;-87
2021/12/13 04:34:27;;;;;;;9.00;6.30;;;10.30;64.40;;;;;;5030653;28;20453;-88
2021/12/13 04:36:57;;;;;;;11.43;6.60;;;10.40;64.20;;;;;;5058103;28;20480;-88
2021/12/13 04:39:30;;;;;;;10.77;6.80;;;10.40;64.60;;;;;;5073949;28;20976;-88
2021/12/13 04:42:01;;;;;;;14.30;8.30;;;10.60;64.10;;;;;;5024855;28;20452;-87
2021/12/13 04:44:34;;;;;;;12.53;6.90;;;10.70;63.50;;;;;;5074747;28;20468;-87
2021/12/13 04:47:07;;;;;;;12.93;7.40;;;10.70;63.60;;;;;;5055084;28;20459;-89
2021/12/13 04:49:37;;;;;;;10.30;5.73;;;10.90;63.30;;;;;;5075882;28;20611;-87
2021/12/13 04:52:08;;;;;;;9.20;5.83;;;10.90;62.70;;;;;;5040911;28;20460;-88
2021/12/13 04:54:37;;;;;;;12.30;8.00;;;11.00;62.50;;;;;;5054673;28;20546;-88
2021/12/13 04:57:07;;;;;;;12.83;6.87;;;11.00;62.50;;;;;;5021800;28;20469;-87
2021/12/13 04:59:34;;;;;;;12.17;7.27;;;11.10;62.30;;;;;;5071489;28;20492;-87
2021/12/13 05:02:07;;;;;;;8.90;6.93;;;11.20;62.20;;;;;;5054219;28;20464;-88
2021/12/13 05:04:34;;;;;;;12.50;7.67;;;11.20;61.90;;;;;;5055409;28;20727;-87
2021/12/13 05:07:05;;;;;;;9.27;6.20;;;11.30;61.90;;;;;;5073688;28;20461;-87
2021/12/13 05:09:33;;;;;;;13.10;7.10;;;11.10;62.20;;;;;;5057649;28;20464;-89
2021/12/13 05:12:10;;;;;;;10.47;6.67;;;11.20;63.00;;;;;;5018963;28;20468;-87
2021/12/13 05:14:41;;;;;;;12.83;9.07;;;11.30;62.10;;;;;;5072066;28;20963;-87
2021/12/13 05:17:12;;;;;;;12.70;6.70;;;11.30;61.80;;;;;;5073061;28;20821;-86
2021/12/13 05:19:42;;;;;;;11.53;7.30;;;11.30;61.60;;;;;;5047001;28;20482;-86
2021/12/13 05:22:12;;;;;;;12.03;7.53;;;11.30;61.70;;;;;;5039089;28;20451;-85
2021/12/13 05:24:44;;;;;;;10.80;8.20;;;11.30;61.80;;;;;;5055993;28;20819;-87
2021/12/13 05:27:15;;;;;;;8.37;6.20;;;11.30;61.50;;;;;;5044459;28;20567;-87
2021/12/13 05:29:44;;;;;;;12.30;7.63;;;11.30;61.40;;;;;;5030538;28;20498;-87
2021/12/13 05:32:15;;;;;;;12.40;7.87;;;11.30;61.50;;;;;;5053800;28;20472;-88
2021/12/13 05:34:48;;;;;;;18.13;9.97;;;11.20;61.60;;;;;;5053699;28;20455;-89
2021/12/13 05:37:16;;;;;;;12.20;7.50;;;11.20;61.80;;;;;;5023892;28;20468;-88
2021/12/13 05:39:56;;;;;;;20.53;14.00;;;11.20;61.90;;;;;;5038440;28;21094;-89
2021/12/13 05:42:37;;;;;;;13.60;10.27;;;11.20;62.00;;;;;;5072287;28;20452;-87
2021/12/13 05:45:05;;;;;;;25.40;10.00;;;11.30;61.90;;;;;;5062753;28;20518;-89
2021/12/13 05:47:32;;;;;;;13.43;8.80;;;11.20;61.70;;;;;;5054048;28;20446;-87
2021/12/13 05:50:00;;;;;;;15.43;9.47;;;10.90;63.00;;;;;;5070662;28;20483;-87
2021/12/13 05:52:34;;;;;;;10.43;6.30;;;11.00;63.00;;;;;;5044037;28;20931;-87
2021/12/13 05:55:08;;;;;;;10.57;7.70;;;10.80;63.20;;;;;;5040226;28;20451;-87
2021/12/13 05:57:43;;;;;;;13.20;7.97;;;10.90;63.40;;;;;;5047293;28;20476;-87
2021/12/13 06:00:17;;;;;;;12.97;8.53;;;11.00;63.00;;;;;;5073324;28;20477;-85
2021/12/13 06:03:01;;;;;;;16.30;8.50;;;11.10;62.80;;;;;;5037996;28;20819;-87
2021/12/13 06:05:31;;;;;;;14.80;8.87;;;11.10;62.80;;;;;;5029642;28;20456;-87
2021/12/13 06:08:00;;;;;;;11.13;7.90;;;11.20;62.60;;;;;;5053091;28;20463;-88
2021/12/13 06:10:35;;;;;;;15.87;9.43;;;11.30;62.30;;;;;;5046332;28;20464;-87
2021/12/13 06:13:06;;;;;;;13.07;8.37;;;11.40;62.10;;;;;;5055745;28;20533;-87
2021/12/13 06:15:35;;;;;;;13.07;7.00;;;11.30;61.90;;;;;;5056948;28;20459;-87
2021/12/13 06:18:16;;;;;;;13.57;7.40;;;11.40;61.90;;;;;;5054384;28;20470;-87
2021/12/13 06:20:48;;;;;;;14.43;7.97;;;11.50;61.70;;;;;;5044562;28;20548;-87
2021/12/13 06:23:18;;;;;;;11.77;8.10;;;11.40;61.50;;;;;;5063512;28;20463;-88
2021/12/13 06:25:48;;;;;;;12.80;7.10;;;11.40;61.30;;;;;;5055805;28;20460;-87
2021/12/13 06:28:26;;;;;;;10.70;7.17;;;11.30;61.60;;;;;;5072347;28;20809;-88
2021/12/13 06:31:00;;;;;;;12.67;7.33;;;11.30;62.20;;;;;;5043637;28;20448;-87
2021/12/13 06:33:28;;;;;;;10.60;6.27;;;11.20;62.70;;;;;;5056179;28;20479;-88
2021/12/13 06:35:58;;;;;;;9.50;6.70;;;11.20;62.60;;;;;;5072690;28;20862;-87
2021/12/13 06:38:42;;;;;;;13.60;7.67;;;11.40;62.30;;;;;;5072449;28;20475;-88
2021/12/13 06:41:29;;;;;;;11.97;7.60;;;11.40;61.90;;;;;;5074164;28;20985;-88
2021/12/13 06:44:01;;;;;;;11.63;6.90;;;11.50;61.60;;;;;;5053975;28;20887;-87
2021/12/13 06:46:45;;;;;;;13.00;6.93;;;11.60;61.60;;;;;;5039049;28;20569;-88
2021/12/13 06:49:19;;;;;;;14.73;7.17;;;11.60;61.20;;;;;;5045939;28;20471;-85
2021/12/13 06:51:52;;;;;;;17.17;9.50;;;11.60;61.10;;;;;;5058233;28;20959;-88
2021/12/13 06:54:26;;;;;;;14.23;9.90;;;11.50;61.40;;;;;;5055584;28;20453;-87
2021/12/13 06:56:56;;;;;;;17.00;8.90;;;11.60;61.30;;;;;;5041327;28;21054;-87
2021/12/13 06:59:25;;;;;;;11.90;7.03;;;11.50;61.80;;;;;;5054837;28;20855;-87
2021/12/13 07:02:07;;;;;;;15.87;8.17;;;11.50;61.50;;;;;;5056931;28;20448;-87
2021/12/13 07:04:53;;;;;;;14.90;8.90;;;11.50;61.70;;;;;;5074433;28;20924;-88
2021/12/13 07:07:28;;;;;;;14.23;8.50;;;11.50;61.50;;;;;;5030462;28;20505;-86
2021/12/13 07:09:59;;;;;;;14.60;8.07;;;11.60;61.30;;;;;;5060724;28;20483;-87
2021/12/13 07:12:29;;;;;;;16.30;9.83;;;11.70;61.20;;;;;;5070953;28;20459;-89
2021/12/13 07:14:57;;;;;;;17.60;9.03;;;11.70;61.00;;;;;;5076443;28;20538;-87
2021/12/13 07:17:30;;;;;;;16.17;9.33;;;11.60;61.20;;;;;;5062692;28;20816;-88
2021/12/13 07:19:59;;;;;;;12.50;7.67;;;11.60;61.20;;;;;;5071280;28;20987;-89
2021/12/13 07:22:28;;;;;;;15.50;8.53;;;11.50;61.20;;;;;;5056513;28;20448;-88
2021/12/13 07:25:05;;;;;;;19.67;10.93;;;11.50;61.70;;;;;;5074467;28;20459;-88
2021/12/13 07:27:35;;;;;;;15.13;8.27;;;11.50;61.50;;;;;;5059373;28;20454;-87
2021/12/13 07:30:11;;;;;;;12.80;8.60;;;11.50;61.30;;;;;;5063769;28;20819;-89
2021/12/13 07:32:41;;;;;;;21.40;12.80;;;11.50;61.20;;;;;;5059652;28;21010;-87
2021/12/13 07:35:12;;;;;;;14.37;9.30;;;11.50;61.40;;;;;;5056323;28;21059;-88
2021/12/13 07:37:44;;;;;;;16.70;10.10;;;11.50;61.40;;;;;;5065214;28;20550;-87
2021/12/13 07:40:34;;;;;;;21.97;10.90;;;11.60;61.30;;;;;;5065285;28;21009;-87
2021/12/13 07:43:18;;;;;;;21.57;12.77;;;11.70;61.20;;;;;;5055011;28;20456;-88
2021/12/13 07:45:54;;;;;;;16.37;11.20;;;11.70;61.20;;;;;;5055960;28;21019;-85
2021/12/13 07:48:24;;;;;;;16.17;11.03;;;11.70;61.10;;;;;;5042391;28;20456;-87
2021/12/13 07:51:01;;;;;;;17.20;11.10;;;11.70;60.90;;;;;;5079199;28;20459;-88
2021/12/13 07:53:37;;;;;;;14.07;10.20;;;11.80;61.00;;;;;;5043054;28;20950;-89
2021/12/13 07:56:05;;;;;;;16.20;10.03;;;11.80;60.90;;;;;;5060240;28;20448;-87
2021/12/13 07:58:36;;;;;;;19.10;10.67;;;11.90;61.00;;;;;;5046678;28;20478;-88
2021/12/13 08:01:18;;;;;;;21.30;13.13;;;11.90;60.70;;;;;;5059320;28;20813;-87
2021/12/13 08:03:48;;;;;;;24.10;15.70;;;11.80;61.10;;;;;;5033854;28;20488;-87
2021/12/13 08:06:17;;;;;;;26.53;16.57;;;11.70;61.30;;;;;;5064808;28;20463;-87
2021/12/13 08:08:51;;;;;;;25.07;15.00;;;11.50;62.30;;;;;;5053495;28;20590;-88
2021/12/13 08:11:19;;;;;;;17.77;12.90;;;11.50;62.60;;;;;;5060870;28;20831;-87
2021/12/13 08:13:59;;;;;;;17.47;13.20;;;11.60;62.20;;;;;;5069592;28;20509;-88
2021/12/13 08:16:34;;;;;;;38.53;27.57;;;11.70;62.00;;;;;;5062406;28;20986;-87
2021/12/13 08:19:13;;;;;;;31.40;22.77;;;11.80;61.80;;;;;;5081055;28;20908;-87
2021/12/13 08:21:45;;;;;;;32.10;23.50;;;11.90;61.60;;;;;;5042906;28;20473;-88
2021/12/13 08:24:26;;;;;;;30.00;22.90;;;11.90;61.40;;;;;;5076755;28;20592;-86
2021/12/13 08:27:04;;;;;;;27.57;17.70;;;12.00;61.30;;;;;;5058471;28;20935;-87
2021/12/13 08:29:35;;;;;;;20.67;13.40;;;12.00;60.90;;;;;;5061641;28;20983;-87
2021/12/13 08:32:07;;;;;;;20.60;12.10;;;12.00;60.90;;;;;;5060951;28;20452;-88
2021/12/13 08:34:37;;;;;;;18.53;11.90;;;11.90;61.10;;;;;;5061729;28;20448;-88
2021/12/13 08:37:13;;;;;;;15.63;10.93;;;11.90;61.30;;;;;;5035309;28;20979;-87
2021/12/13 08:39:40;;;;;;;19.37;11.90;;;11.90;61.20;;;;;;5066080;28;20487;-87
2021/12/13 08:42:11;;;;;;;23.40;13.10;;;11.90;61.10;;;;;;5062842;28;20445;-87
2021/12/13 08:44:41;;;;;;;27.40;16.37;;;12.00;61.20;;;;;;5046096;28;20475;-89
2021/12/13 08:47:14;;;;;;;20.17;12.93;;;12.00;61.30;;;;;;5066088;28;20570;-87
2021/12/13 08:49:44;;;;;;;17.57;11.47;;;12.00;61.10;;;;;;5050587;28;21069;-87
2021/12/13 08:52:21;;;;;;;20.00;11.97;;;12.10;61.10;;;;;;5080179;28;20489;-87
2021/12/13 08:54:59;;;;;;;16.73;11.93;;;12.00;61.00;;;;;;5062759;28;20454;-88
2021/12/13 08:57:42;;;;;;;17.27;11.03;;;12.10;61.00;;;;;;5061123;28;20472;-87
2021/12/13 09:00:21;;;;;;;15.20;11.60;;;12.10;61.00;;;;;;5060456;28;20484;-88
2021/12/13 09:02:54;;;;;;;18.40;11.93;;;12.10;61.10;;;;;;5065485;28;21053;-87
2021/12/13 09:05:25;;;;;;;19.20;11.63;;;12.10;60.90;;;;;;5070701;28;20462;-87
2021/12/13 09:07:56;;;;;;;22.53;12.40;;;12.20;60.90;;;;;;5062438;28;20500;-88
2021/12/13 09:10:38;;;;;;;18.10;11.60;;;12.30;60.80;;;;;;5078352;28;20476;-87
2021/12/13 09:29:18;;;;;;;15.50;10.13;;;12.10;60.90;;;;;;5067687;28;20471;-87
2021/12/13 09:31:45;;;;;;;12.57;8.67;;;12.10;61.00;;;;;;5067313;28;20546;-86
2021/12/13 09:34:16;;;;;;;18.40;11.17;;;12.20;61.00;;;;;;5065684;28;20442;-87
2021/12/13 09:36:45;;;;;;;20.00;10.00;;;12.20;60.60;;;;;;5042656;28;20454;-86
2021/12/13 09:39:17;;;;;;;14.90;9.63;;;12.30;60.50;;;;;;5077480;28;21002;-87
2021/12/13 09:41:48;;;;;;;15.17;9.80;;;12.40;60.30;;;;;;5075475;28;20515;-87
2021/12/13 09:44:23;;;;;;;19.57;10.50;;;12.30;60.20;;;;;;5049954;28;20501;-86
2021/12/13 09:46:57;;;;;;;13.43;8.90;;;12.40;60.50;;;;;;5042617;28;20984;-88
2021/12/13 09:49:27;;;;;;;28.63;13.77;;;12.50;60.40;;;;;;5046793;28;20586;-87
2021/12/13 09:51:58;;;;;;;37.87;19.00;;;12.50;60.50;;;;;;5060198;28;20952;-84
2021/12/13 09:54:30;;;;;;;15.07;9.37;;;12.50;60.50;;;;;;5059341;28;20944;-87
2021/12/13 09:57:00;;;;;;;24.90;12.67;;;12.70;60.90;;;;;;5060391;28;20866;-87
2021/12/13 09:59:32;;;;;;;17.40;10.20;;;12.60;60.70;;;;;;5082864;28;20486;-88
2021/12/13 10:02:04;;;;;;;17.73;10.00;;;12.70;60.60;;;;;;5036976;28;20510;-87
2021/12/13 10:04:34;;;;;;;15.20;9.17;;;12.70;60.70;;;;;;5080668;28;20460;-87
2021/12/13 10:07:06;;;;;;;20.77;10.93;;;12.80;60.70;;;;;;5077860;28;20568;-86
2021/12/13 10:09:37;;;;;;;13.67;8.93;;;12.80;60.30;;;;;;5079705;28;20467;-87
2021/12/13 10:12:10;;;;;;;13.10;8.63;;;12.90;60.30;;;;;;5060430;28;20828;-86
2021/12/13 10:14:42;;;;;;;11.63;9.13;;;12.90;60.20;;;;;;5065690;28;21274;-87
2021/12/13 10:17:11;;;;;;;11.43;7.37;;;12.80;60.10;;;;;;5064007;28;20449;-87
2021/12/13 10:19:42;;;;;;;8.30;6.87;;;12.70;60.60;;;;;;5050418;28;20607;-87
2021/12/13 10:22:12;;;;;;;14.63;8.47;;;12.70;60.90;;;;;;5077010;28;20456;-86
2021/12/13 10:24:44;;;;;;;11.00;7.37;;;12.80;61.20;;;;;;5059382;28;20452;-86
2021/12/13 10:27:15;;;;;;;11.97;7.80;;;12.80;61.00;;;;;;5066940;28;20940;-88
2021/12/13 10:29:46;;;;;;;8.97;6.33;;;12.70;61.20;;;;;;5060683;28;20471;-87
2021/12/13 10:32:17;;;;;;;10.20;6.70;;;12.80;61.30;;;;;;5044484;28;20736;-87
2021/12/13 10:34:48;;;;;;;8.93;6.43;;;12.90;61.20;;;;;;5078810;28;20462;-87
2021/12/13 10:37:18;;;;;;;11.97;6.63;;;12.90;61.10;;;;;;5059676;28;20932;-84
2021/12/13 10:39:48;;;;;;;10.17;6.60;;;12.90;61.30;;;;;;5076859;28;20475;-87
2021/12/13 10:42:20;;;;;;;8.20;6.37;;;12.80;61.20;;;;;;5043672;28;20464;-86
2021/12/13 10:44:49;;;;;;;10.47;5.77;;;12.90;61.20;;;;;;5045450;28;20483;-87
2021/12/13 10:47:24;;;;;;;8.13;5.73;;;12.90;61.40;;;;;;5055392;28;20444;-87
2021/12/13 10:49:54;;;;;;;10.50;6.90;;;12.80;61.30;;;;;;5047865;28;20987;-87
2021/12/13 10:52:25;;;;;;;9.93;6.73;;;12.80;61.40;;;;;;5028182;28;21128;-86
2021/12/13 10:54:57;;;;;;;9.77;5.97;;;12.70;61.70;;;;;;5047891;28;20448;-87
2021/12/13 10:57:29;;;;;;;10.97;9.87;;;12.80;61.90;;;;;;5077580;28;20448;-87
2021/12/13 10:59:59;;;;;;;9.20;6.47;;;12.80;61.60;;;;;;5039329;28;20467;-87
2021/12/13 11:02:29;;;;;;;14.43;9.17;;;12.90;61.50;;;;;;5045412;28;20449;-88
2021/12/13 11:04:59;;;;;;;10.00;6.83;;;12.90;61.40;;;;;;5067319;28;20797;-87
2021/12/13 11:07:29;;;;;;;8.10;5.63;;;13.00;61.50;;;;;;5070696;28;20459;-88
2021/12/13 11:09:58;;;;;;;13.30;7.83;;;13.10;61.50;;;;;;5068721;28;20912;-87
2021/12/13 11:12:29;;;;;;;21.20;14.90;;;13.20;61.20;;;;;;5050721;28;20558;-88
2021/12/13 11:15:00;;;;;;;10.30;7.00;;;13.20;61.20;;;;;;5067095;28;20513;-87
2021/12/13 11:17:30;;;;;;;11.67;8.43;;;13.20;61.20;;;;;;5047686;28;20466;-87
2021/12/13 11:20:02;;;;;;;11.20;7.03;;;13.20;61.30;;;;;;5063643;28;20627;-87
2021/12/13 11:22:32;;;;;;;21.23;14.17;;;13.30;61.40;;;;;;5051392;28;20956;-86
2021/12/13 11:25:15;;;;;;;10.20;7.20;;;13.30;61.20;;;;;;5053317;28;20475;-87
2021/12/13 11:27:42;;;;;;;23.93;15.43;;;13.30;61.10;;;;;;5065652;28;20517;-88
2021/12/13 11:30:15;;;;;;;7.83;5.37;;;13.40;61.20;;;;;;5080721;28;20559;-87
2021/12/13 11:33:34;;;;;;;6.63;4.80;;;13.40;60.90;;;;;;5062857;28;20980;-86
2021/12/13 11:36:26;;;;;;;4.90;3.60;;;13.40;61.20;;;;;;5034436;28;20460;-87
2021/12/13 11:39:28;;;;;;;11.20;7.50;;;13.40;61.00;;;;;;5048379;28;20863;-87
2021/12/13 11:42:13;;;;;;;5.50;4.83;;;13.40;61.00;;;;;;5016572;28;20452;-87
2021/12/13 11:45:15;;;;;;;7.80;5.33;;;13.40;61.30;;;;;;5048065;28;20450;-87
2021/12/13 11:48:07;;;;;;;8.17;5.90;;;13.40;61.50;;;;;;5063861;28;20815;-87
2021/12/13 11:51:05;;;;;;;5.90;4.37;;;13.40;61.60;;;;;;5049035;28;20967;-87
2021/12/13 11:53:49;;;;;;;12.93;5.70;;;13.50;61.70;;;;;;5055662;28;20560;-89
2021/12/13 11:56:46;;;;;;;11.57;7.47;;;13.50;61.40;;;;;;5079500;28;20495;-87
2021/12/13 11:59:56;;;;;;;7.07;5.60;;;13.50;61.30;;;;;;5045804;28;21017;-87
2021/12/13 12:02:36;;;;;;;6.90;4.27;;;13.50;61.50;;;;;;4973347;28;20448;-85
2021/12/13 12:05:45;;;;;;;4.30;3.67;;;13.60;61.20;;;;;;5055051;28;20455;-87
2021/12/13 12:08:47;;;;;;;4.07;3.50;;;13.70;61.00;;;;;;5050202;28;20464;-87
2021/12/13 12:11:52;;;;;;;5.90;3.80;;;13.80;60.80;;;;;;5062987;28;20821;-87
2021/12/13 12:14:24;;;;;;;7.23;5.30;;;13.80;60.90;;;;;;5083229;28;20483;-87
2021/12/13 12:16:54;;;;;;;7.17;4.67;;;13.70;61.00;;;;;;5051095;28;20451;-87
2021/12/13 12:19:23;;;;;;;7.43;5.30;;;13.70;60.90;;;;;;5082456;28;20475;-85
2021/12/13 12:21:57;;;;;;;5.63;4.17;;;13.80;60.80;;;;;;5046783;28;20807;-85
2021/12/13 12:24:28;;;;;;;5.47;4.93;;;13.80;60.50;;;;;;5079737;28;20808;-87
2021/12/13 12:26:58;;;;;;;3.10;2.13;;;13.90;60.60;;;;;;5053053;28;20475;-88
2021/12/13 12:29:28;;;;;;;4.33;3.40;;;14.00;60.70;;;;;;5076998;28;20491;-87
2021/12/13 12:32:03;;;;;;;3.80;2.97;;;14.10;60.60;;;;;;5061868;28;20448;-87
2021/12/13 12:34:30;;;;;;;4.80;3.80;;;14.10;59.90;;;;;;5066877;28;20818;-87
2021/12/13 12:37:43;;;;;;;7.27;6.53;;;14.10;59.70;;;;;;5086203;28;20470;-87
2021/12/13 12:40:35;;;;;;;4.30;3.87;;;14.20;59.80;;;;;;5048509;28;20667;-87
2021/12/13 12:43:06;;;;;;;3.73;3.33;;;14.20;59.90;;;;;;5058579;28;20484;-87
2021/12/13 12:45:39;;;;;;;4.37;3.40;;;14.20;59.90;;;;;;5066667;28;20549;-86
2021/12/13 12:48:13;;;;;;;3.53;2.83;;;14.20;59.80;;;;;;5080506;28;20463;-87
2021/12/13 12:50:46;;;;;;;3.13;2.47;;;14.20;59.70;;;;;;5044322;28;20444;-87
2021/12/13 12:53:15;;;;;;;3.87;2.60;;;14.20;59.60;;;;;;5052301;28;20452;-87
2021/12/13 12:55:47;;;;;;;4.23;3.17;;;14.20;59.60;;;;;;5046677;28;20459;-87
2021/12/13 12:58:17;;;;;;;5.23;2.87;;;14.30;59.60;;;;;;5032551;28;20564;-88
2021/12/13 13:00:47;;;;;;;4.47;3.90;;;14.30;59.80;;;;;;5045613;28;20468;-88
2021/12/13 13:03:21;;;;;;;9.93;3.03;;;14.30;59.80;;;;;;5080097;28;20457;-88
2021/12/13 13:05:49;;;;;;;4.23;3.83;;;14.30;59.70;;;;;;5042342;28;20456;-87
2021/12/13 13:08:28;;;;;;;4.70;4.20;;;14.20;59.90;;;;;;5062104;28;20831;-87
2021/12/13 13:13:42;;;;;;;3.40;3.10;;;14.30;60.30;;;;;;5049901;28;20466;-87
2021/12/13 13:16:09;;;;;;;6.10;3.27;;;14.40;60.10;;;;;;5060373;28;20460;-88
2021/12/13 13:18:39;;;;;;;3.80;3.30;;;14.40;59.80;;;;;;5052426;28;20517;-88
2021/12/13 13:21:09;;;;;;;5.40;4.90;;;14.40;59.40;;;;;;5061287;28;20472;-88
2021/12/13 13:23:41;;;;;;;6.87;5.60;;;14.40;59.40;;;;;;5050770;28;20513;-88
2021/12/13 13:26:10;;;;;;;6.27;4.43;;;14.30;59.50;;;;;;5076926;28;20447;-88
2021/12/13 13:28:40;;;;;;;4.43;3.90;;;14.30;59.50;;;;;;5061310;28;20574;-88
2021/12/13 13:31:13;;;;;;;5.00;3.90;;;14.30;59.50;;;;;;5078003;28;20481;-87
2021/12/13 13:33:43;;;;;;;5.13;3.40;;;14.30;59.10;;;;;;5076401;28;20444;-87